Time;durP1;ratioP1;P1;durP2;ratioP2;P2;SDS_P1;SDS_P2;PMS_P1;PMS_P2;Temp;Humidity;BMP_temperature;BMP_pressure;BME280_temperature;BME280_humidity;BME280_pressure;Samples;Min_cycle;Max_cycle;Signal;HPM_P1;HPM_P2
2023/08/14 06:17:17;;;;;;;;;;;;;;;26.22;62.37;96836.44;4229785;27;10399;-63
2023/08/14 06:19:20;;;;;;;;;;;;;;;26.53;61.61;96836.81;4231422;28;5850;-63
2023/08/14 06:21:23;;;;;;;;;;;;;;;26.77;61.01;96831.28;4229423;28;5768;-64
2023/08/14 06:23:25;;;;;;;;;;;;;;;26.96;60.67;96838.31;4230277;28;5859;-64
2023/08/14 06:25:31;;;;;;;;;;;;;;;27.15;60.29;96840.16;4230765;28;5674;-64
2023/08/14 06:27:34;;;;;;;;;;;;;;;27.28;59.89;96840.19;4223835;28;5695;-64
2023/08/14 06:29:37;;;;;;;;;;;;;;;27.41;59.44;96848.66;4230115;28;5748;-64
2023/08/14 06:31:40;;;;;;;;;;;;;;;27.52;59.11;96858.22;4229654;28;5781;-64
2023/08/14 06:33:46;;;;;;;;;;;;;;;27.61;58.88;96861.84;4221327;28;5840;-64
2023/08/14 06:35:50;;;;;;;;;;;;;;;27.68;58.45;96864.22;4229105;28;5650;-64
2023/08/14 06:37:53;;;;;;;;;;;;;;;27.75;58.37;96864.63;4227657;28;5771;-64
2023/08/14 06:39:56;;;;;;;;;;;;;;;27.80;58.04;96872.66;4229377;28;5689;-64
2023/08/14 06:41:59;;;;;;;;;;;;;;;27.85;57.70;96867.13;4227634;28;6909;-64
2023/08/14 06:44:02;;;;;;;;;;;;;;;27.91;57.79;96862.41;4228944;28;5657;-65
2023/08/14 06:46:05;;;;;;;;;;;;;;;27.94;57.43;96867.22;4230612;28;5772;-64
2023/08/14 06:48:08;;;;;;;;;;;;;;;27.97;57.29;96866.59;4220992;28;5658;-63
2023/08/14 06:50:12;;;;;;;;;;;;;;;28.01;57.07;96868.44;4230436;28;5755;-63
2023/08/14 06:52:15;;;;;;;;;;;;;;;28.04;56.87;96864.28;4230004;28;5771;-63
2023/08/14 06:54:19;;;;;;;;;;;;;;;28.05;56.59;96864.00;4229154;28;5682;-63
2023/08/14 06:56:22;;;;;;;;;;;;;;;28.08;56.39;96860.66;4230514;28;5677;-63
2023/08/14 06:58:25;;;;;;;;;;;;;;;28.11;56.28;96870.13;4230089;28;5778;-63
2023/08/14 07:00:28;;;;;;;;;;;;;;;28.10;56.35;96860.38;4226345;28;5787;-63
2023/08/14 07:02:31;;;;;;;;;;;;;;;28.11;56.25;96872.84;4229528;28;5763;-64
2023/08/14 07:04:34;;;;;;;;;;;;;;;28.13;55.98;96878.78;4230703;28;5803;-64
2023/08/14 07:06:38;;;;;;;;;;;;;;;28.13;55.99;96876.88;4227918;28;5803;-64
2023/08/14 07:08:42;;;;;;;;;;;;;;;28.14;55.97;96883.09;4229617;28;5820;-63
2023/08/14 07:10:45;;;;;;;;;;;;;;;28.16;55.62;96874.66;4229955;28;5670;-64
2023/08/14 07:12:48;;;;;;;;;;;;;;;28.15;55.60;96887.44;4230395;28;5796;-66
2023/08/14 07:14:51;;;;;;;;;;;;;;;28.14;55.52;96889.34;4230351;28;5765;-64
2023/08/14 07:16:55;;;;;;;;;;;;;;;28.14;55.49;96885.81;4226138;28;5662;-64
2023/08/14 07:18:58;;;;;;;;;;;;;;;28.14;55.47;96893.97;4217633;28;5702;-64
2023/08/14 07:21:01;;;;;;;;;;;;;;;28.15;55.38;96895.59;4218202;28;5747;-64
2023/08/14 07:23:05;;;;;;;;;;;;;;;28.15;55.34;96892.88;4218724;28;5752;-63
2023/08/14 07:25:09;;;;;;;;;;;;;;;28.14;55.24;96888.53;4218849;28;5657;-63
2023/08/14 07:27:12;;;;;;;;;;;;;;;28.17;55.14;96903.44;4218551;28;5968;-65
2023/08/14 07:29:15;;;;;;;;;;;;;;;28.18;55.17;96900.41;4218852;28;5696;-65
2023/08/14 07:31:22;;;;;;;;;;;;;;;28.19;54.88;96898.50;4202950;28;5730;-65
2023/08/14 07:33:25;;;;;;;;;;;;;;;28.19;54.98;96901.22;4218963;28;5841;-64
2023/08/14 07:35:28;;;;;;;;;;;;;;;28.19;54.87;96899.28;4218466;28;5744;-64
2023/08/14 07:37:31;;;;;;;;;;;;;;;28.20;54.92;96910.97;4218153;28;5742;-64
2023/08/14 07:39:35;;;;;;;;;;;;;;;28.23;54.85;96908.47;4209184;28;5757;-64
2023/08/14 07:41:38;;;;;;;;;;;;;;;28.25;54.65;96917.13;4212878;28;5796;-64
2023/08/14 07:43:41;;;;;;;;;;;;;;;28.27;54.63;96914.09;4218812;28;5085;-64
2023/08/14 07:45:43;;;;;;;;;;;;;;;28.27;54.36;96920.38;4218848;28;5811;-64
2023/08/14 07:47:46;;;;;;;;;;;;;;;28.29;54.44;96918.16;4219237;28;5082;-64
2023/08/14 07:49:49;;;;;;;;;;;;;;;28.30;54.14;96936.06;4218645;28;5681;-64
2023/08/14 07:51:52;;;;;;;;;;;;;;;28.27;54.19;96925.81;4218363;28;6555;-63
2023/08/14 07:53:55;;;;;;;;;;;;;;;28.28;54.06;96937.47;4218982;28;5673;-64
2023/08/14 07:55:59;;;;;;;;;;;;;;;28.27;54.30;96939.41;4218582;28;5882;-63
2023/08/14 07:58:02;;;;;;;;;;;;;;;28.28;54.39;96956.50;4218648;28;5748;-63
2023/08/14 08:00:08;;;;;;;;;;;;;;;28.30;54.30;96948.84;4218296;28;5784;-63
2023/08/14 08:02:11;;;;;;;;;;;;;;;28.32;53.99;96961.06;4218188;28;5763;-63
2023/08/14 08:04:14;;;;;;;;;;;;;;;28.33;54.15;96959.94;4218241;28;5735;-63
2023/08/14 08:06:20;;;;;;;;;;;;;;;28.34;53.80;96964.28;4208952;28;5768;-64
2023/08/14 08:08:23;;;;;;;;;;;;;;;28.31;53.90;96964.84;4215273;28;5864;-64
2023/08/14 08:10:26;;;;;;;;;;;;;;;28.33;53.89;96975.44;4203221;28;5810;-64
2023/08/14 08:12:31;;;;;;;;;;;;;;;28.35;53.63;96981.38;4218031;28;5774;-64
2023/08/14 08:14:36;;;;;;;;;;;;;;;28.36;53.66;96978.38;4214252;28;5661;-64
2023/08/14 08:16:39;;;;;;;;;;;;;;;28.38;53.37;96995.16;4215708;28;5669;-64
2023/08/14 08:18:42;;;;;;;;;;;;;;;28.41;53.35;96997.28;4213448;28;5673;-64
2023/08/14 08:20:45;;;;;;;;;;;;;;;28.44;53.19;96997.81;4218016;28;5733;-64
2023/08/14 08:22:48;;;;;;;;;;;;;;;28.45;53.23;97002.13;4205817;28;5691;-64
2023/08/14 08:24:51;;;;;;;;;;;;;;;28.44;53.41;97001.31;4213857;28;5673;-63
2023/08/14 08:26:54;;;;;;;;;;;;;;;28.46;52.92;97003.75;4215863;28;5074;-63
2023/08/14 08:28:58;;;;;;;;;;;;;;;28.48;52.95;97009.69;4216343;28;5665;-63
2023/08/14 08:31:03;;;;;;;;;;;;;;;28.50;52.84;97018.34;4215638;28;5660;-63
2023/08/14 08:33:06;;;;;;;;;;;;;;;28.48;52.65;97009.69;4217732;28;5756;-64
2023/08/14 08:35:09;;;;;;;;;;;;;;;28.50;52.55;97005.53;4211079;28;5690;-64
2023/08/14 08:37:12;;;;;;;;;;;;;;;28.49;52.30;97017.53;4215793;28;5105;-64
2023/08/14 08:39:15;;;;;;;;;;;;;;;28.46;52.40;97009.97;4208079;28;5884;-64
2023/08/14 08:41:25;;;;;;;;;;;;;;;28.48;52.36;97015.13;4208858;28;5808;-63
2023/08/14 08:43:28;;;;;;;;;;;;;;;28.51;52.22;97014.50;4217448;28;5685;-63
2023/08/14 08:45:35;;;;;;;;;;;;;;;28.54;52.05;97011.16;4215891;28;5669;-64
2023/08/14 08:47:39;;;;;;;;;;;;;;;28.56;51.96;97017.94;4207194;28;5830;-64
2023/08/14 08:49:42;;;;;;;;;;;;;;;28.56;51.88;97008.97;4213953;28;5815;-64
2023/08/14 08:51:46;;;;;;;;;;;;;;;28.56;51.68;97012.50;4217155;28;5752;-64
2023/08/14 08:53:51;;;;;;;;;;;;;;;28.59;51.64;97016.53;4209518;28;5780;-64
2023/08/14 08:55:55;;;;;;;;;;;;;;;28.58;51.52;96999.41;4212825;28;5888;-63
2023/08/14 08:58:00;;;;;;;;;;;;;;;28.59;51.32;97002.91;4217213;28;5885;-65
2023/08/14 09:00:03;;;;;;;;;;;;;;;28.61;51.24;97003.41;4209836;28;5680;-65
2023/08/14 09:02:08;;;;;;;;;;;;;;;28.60;51.21;97010.78;4215184;28;5839;-64
2023/08/14 09:04:11;;;;;;;;;;;;;;;28.63;51.20;97012.06;4214281;28;8158;-63
2023/08/14 09:06:15;;;;;;;;;;;;;;;28.61;50.99;97008.84;4207007;28;5620;-63
2023/08/14 09:08:18;;;;;;;;;;;;;;;28.61;51.05;97017.00;4209192;28;5749;-63
2023/08/14 09:10:21;;;;;;;;;;;;;;;28.60;51.03;97009.97;4214839;28;6843;-63
2023/08/14 09:12:24;;;;;;;;;;;;;;;28.59;50.94;97008.34;4216696;28;5827;-65
2023/08/14 09:14:27;;;;;;;;;;;;;;;28.59;51.01;97003.72;4217398;28;6420;-64
2023/08/14 09:16:30;;;;;;;;;;;;;;;28.61;51.18;96997.97;4217463;28;5677;-64
2023/08/14 09:18:34;;;;;;;;;;;;;;;28.62;50.90;97005.81;4217503;28;5787;-63
2023/08/14 09:20:37;;;;;;;;;;;;;;;28.63;50.88;97001.19;4217634;28;5673;-64
2023/08/14 09:22:41;;;;;;;;;;;;;;;28.64;50.67;96997.34;4217798;28;5815;-64
2023/08/14 09:24:43;;;;;;;;;;;;;;;28.67;50.71;96991.34;4217554;28;5758;-64
2023/08/14 09:26:47;;;;;;;;;;;;;;;28.67;50.55;96988.63;4217603;28;5117;-64
2023/08/14 09:28:50;;;;;;;;;;;;;;;28.66;50.41;96982.38;4217549;28;5677;-63
2023/08/14 09:30:53;;;;;;;;;;;;;;;28.67;50.75;96994.06;4217638;28;5686;-64
2023/08/14 09:32:55;;;;;;;;;;;;;;;28.68;50.30;96992.94;4217809;28;5685;-63
2023/08/14 09:35:00;;;;;;;;;;;;;;;28.70;50.35;96993.44;4217410;28;5689;-64
2023/08/14 09:37:05;;;;;;;;;;;;;;;28.71;50.18;96989.59;4217396;28;5666;-64
2023/08/14 09:39:08;;;;;;;;;;;;;;;28.74;50.10;96993.63;4217575;28;5764;-63
2023/08/14 09:41:11;;;;;;;;;;;;;;;28.74;50.00;96988.97;4217461;28;5657;-63
2023/08/14 09:43:14;;;;;;;;;;;;;;;28.77;49.72;96984.84;4217557;28;5665;-64
2023/08/14 09:45:23;;;;;;;;;;;;;;;28.78;49.48;96990.00;4217465;28;5825;-64
2023/08/14 09:47:25;;;;;;;;;;;;;;;28.77;49.33;96982.94;4217632;28;5668;-63
2023/08/14 09:49:29;;;;;;;;;;;;;;;28.82;49.26;96979.31;4217421;28;6357;-64
2023/08/14 09:51:34;;;;;;;;;;;;;;;28.86;49.15;96975.66;4217454;28;6362;-64
2023/08/14 09:53:44;;;;;;;;;;;;;;;28.87;48.73;96974.53;4217286;28;6366;-64
2023/08/14 09:55:47;;;;;;;;;;;;;;;28.89;48.58;96977.81;4217343;28;5681;-64
2023/08/14 09:57:50;;;;;;;;;;;;;;;28.91;48.29;96970.16;4217477;28;5657;-64
2023/08/14 09:59:53;;;;;;;;;;;;;;;28.96;48.07;96964.56;4217467;28;5681;-64
2023/08/14 10:01:58;;;;;;;;;;;;;;;28.96;47.76;96972.75;4217230;28;5657;-64
2023/08/14 10:04:02;;;;;;;;;;;;;;;28.97;47.96;96965.38;4217154;28;6366;-64
2023/08/14 10:06:06;;;;;;;;;;;;;;;29.01;47.67;96960.16;4217069;28;5773;-64
2023/08/14 10:08:11;;;;;;;;;;;;;;;29.02;47.39;96956.31;4216956;28;5681;-64
2023/08/14 10:10:15;;;;;;;;;;;;;;;29.03;47.11;96952.47;4217343;28;5689;-64
2023/08/14 10:12:23;;;;;;;;;;;;;;;29.04;47.19;96954.06;4217269;28;5831;-64
2023/08/14 10:14:29;;;;;;;;;;;;;;;29.06;47.05;96951.84;4217206;28;5654;-64
2023/08/14 10:16:36;;;;;;;;;;;;;;;29.07;46.88;96954.25;4216955;28;5682;-64
2023/08/14 10:18:41;;;;;;;;;;;;;;;29.08;46.82;96955.06;4215487;28;5761;-63
2023/08/14 10:20:46;;;;;;;;;;;;;;;29.10;46.85;96955.56;4203661;28;5697;-63
2023/08/14 10:22:52;;;;;;;;;;;;;;;29.13;46.00;96953.03;4212640;28;5681;-63
2023/08/14 10:24:56;;;;;;;;;;;;;;;29.13;46.30;96946.78;4213338;28;5673;-63
2023/08/14 10:27:02;;;;;;;;;;;;;;;29.15;46.28;96945.38;4216315;28;6386;-63
2023/08/14 10:29:07;;;;;;;;;;;;;;;29.17;46.05;96937.69;4216180;28;7696;-62
2023/08/14 10:31:10;;;;;;;;;;;;;;;29.19;46.10;96929.19;4217103;28;5688;-63
2023/08/14 10:33:14;;;;;;;;;;;;;;;29.19;46.02;96932.72;4214923;28;5773;-63
2023/08/14 10:35:17;;;;;;;;;;;;;;;29.21;45.96;96930.50;4216195;28;5661;-63
2023/08/14 10:37:28;;;;;;;;;;;;;;;29.22;46.11;96928.56;4216547;28;6843;-62
2023/08/14 10:39:35;;;;;;;;;;;;;;;29.24;46.25;96934.53;4216498;28;5665;-63
2023/08/14 10:41:39;;;;;;;;;;;;;;;29.25;46.86;96922.53;4217080;28;5812;-63
2023/08/14 10:43:43;;;;;;;;;;;;;;;29.24;47.35;96910.84;4216745;28;5677;-63
2023/08/14 10:45:46;;;;;;;;;;;;;;;29.24;47.29;96907.31;4217029;28;5673;-62
2023/08/14 10:47:48;;;;;;;;;;;;;;;29.22;47.62;96904.06;4216983;28;5724;-63
2023/08/14 10:49:51;;;;;;;;;;;;;;;29.22;47.84;96904.91;4213817;28;5217;-63
2023/08/14 10:52:01;;;;;;;;;;;;;;;29.20;47.98;96898.16;4213700;28;5656;-63
2023/08/14 10:54:11;;;;;;;;;;;;;;;29.17;48.19;96894.13;4220111;28;5689;-63
2023/08/14 10:56:14;;;;;;;;;;;;;;;29.12;48.08;96879.84;4214718;28;5417;-62
2023/08/14 10:58:47;;;;;;;;;;;;;;;29.10;48.28;96876.63;4217204;28;5763;-63
2023/08/14 11:00:52;;;;;;;;;;;;;;;29.12;48.54;96885.31;4219301;28;5669;-63
2023/08/14 11:03:06;;;;;;;;;;;;;;;29.11;48.46;96878.22;4219426;28;5836;-63
2023/08/14 11:05:13;;;;;;;;;;;;;;;29.11;48.65;96887.22;4219031;28;5673;-63
2023/08/14 11:07:17;;;;;;;;;;;;;;;29.11;48.76;96879.06;4218348;28;5669;-63
2023/08/14 11:09:20;;;;;;;;;;;;;;;29.10;48.76;96879.34;4214211;28;5864;-64
2023/08/14 11:11:23;;;;;;;;;;;;;;;29.06;48.86;96887.34;4215756;28;5746;-63
2023/08/14 11:13:29;;;;;;;;;;;;;;;29.05;49.11;96879.47;4218528;28;5684;-63
2023/08/14 11:15:37;;;;;;;;;;;;;;;29.06;49.13;96876.44;4209331;28;5907;-63
2023/08/14 11:17:40;;;;;;;;;;;;;;;29.09;49.17;96875.81;4210974;28;5788;-63
2023/08/14 11:19:43;;;;;;;;;;;;;;;29.08;49.03;96867.97;4208582;28;6497;-63
2023/08/14 11:21:46;;;;;;;;;;;;;;;29.05;48.63;96871.31;4217332;28;5673;-64
2023/08/14 11:23:49;;;;;;;;;;;;;;;29.05;48.79;96868.59;4212014;28;5833;-63
2023/08/14 11:25:56;;;;;;;;;;;;;;;29.05;48.59;96858.50;4216342;28;5654;-63
2023/08/14 11:27:59;;;;;;;;;;;;;;;29.07;48.39;96853.56;4217818;28;7800;-63
2023/08/14 11:30:02;;;;;;;;;;;;;;;29.08;48.25;96855.16;4216171;28;5784;-64
2023/08/14 11:32:15;;;;;;;;;;;;;;;29.08;48.09;96857.06;4217220;28;5752;-64
2023/08/14 11:34:20;;;;;;;;;;;;;;;29.07;47.94;96859.00;4217960;28;7351;-63
2023/08/14 11:36:22;;;;;;;;;;;;;;;29.08;48.21;96855.16;4215341;28;5105;-63
2023/08/14 11:38:28;;;;;;;;;;;;;;;29.12;47.82;96852.63;4216676;28;5816;-63
2023/08/14 11:40:32;;;;;;;;;;;;;;;29.15;48.13;96852.81;4217678;28;5881;-63
2023/08/14 11:42:36;;;;;;;;;;;;;;;29.17;47.96;96847.06;4216739;28;5812;-64
2023/08/14 11:44:41;;;;;;;;;;;;;;;29.18;47.93;96846.75;4217863;28;5863;-64
2023/08/14 11:46:43;;;;;;;;;;;;;;;29.22;47.55;96852.34;4217784;28;5697;-64
2023/08/14 11:48:48;;;;;;;;;;;;;;;29.23;47.66;96845.81;4212581;28;5836;-63
2023/08/14 11:50:51;;;;;;;;;;;;;;;29.25;47.49;96843.59;4214158;28;5767;-63
2023/08/14 11:52:54;;;;;;;;;;;;;;;29.26;47.36;96843.28;4214121;28;5787;-64
2023/08/14 11:54:58;;;;;;;;;;;;;;;29.29;47.42;96842.63;4214794;28;5658;-63
2023/08/14 11:57:01;;;;;;;;;;;;;;;29.32;47.26;96840.41;4208915;28;5676;-63
2023/08/14 11:59:05;;;;;;;;;;;;;;;29.32;46.99;96841.19;4213907;28;5082;-65
2023/08/14 12:01:10;;;;;;;;;;;;;;;29.34;46.77;96839.00;4212166;28;5765;-64
2023/08/14 12:03:16;;;;;;;;;;;;;;;29.36;46.84;96839.47;4216136;28;5854;-65
2023/08/14 12:05:23;;;;;;;;;;;;;;;29.40;46.68;96834.19;4215756;28;5731;-64
2023/08/14 12:07:26;;;;;;;;;;;;;;;29.42;46.33;96830.03;4217023;28;6469;-64
2023/08/14 12:09:30;;;;;;;;;;;;;;;29.44;46.26;96827.81;4213842;28;5756;-65
2023/08/14 12:11:33;;;;;;;;;;;;;;;29.44;46.03;96825.06;4216793;28;5685;-64
2023/08/14 12:13:36;;;;;;;;;;;;;;;29.45;46.01;96818.53;4214404;28;5796;-64
2023/08/14 12:15:39;;;;;;;;;;;;;;;29.45;45.70;96824.00;4216694;28;5662;-64
2023/08/14 12:17:44;;;;;;;;;;;;;;;29.44;45.20;96818.84;4216963;28;5768;-64
2023/08/14 12:19:52;;;;;;;;;;;;;;;29.45;44.91;96817.75;4216782;28;5673;-64
2023/08/14 12:22:00;;;;;;;;;;;;;;;29.46;44.48;96820.16;4216678;28;5819;-63
2023/08/14 12:24:04;;;;;;;;;;;;;;;29.47;44.36;96810.06;4217054;28;5672;-64
2023/08/14 12:26:07;;;;;;;;;;;;;;;29.50;43.93;96812.19;4215546;28;7396;-63
2023/08/14 12:28:10;;;;;;;;;;;;;;;29.49;43.60;96814.09;4216979;28;5670;-64
2023/08/14 12:30:14;;;;;;;;;;;;;;;29.50;43.30;96809.44;4212820;28;5686;-64
2023/08/14 12:32:18;;;;;;;;;;;;;;;29.52;43.18;96816.19;4208263;28;5767;-63
2023/08/14 12:34:21;;;;;;;;;;;;;;;29.52;42.70;96813.47;4215640;28;6445;-64
2023/08/14 12:36:24;;;;;;;;;;;;;;;29.52;42.24;96813.47;4216552;28;5759;-64
2023/08/14 12:38:28;;;;;;;;;;;;;;;29.53;41.99;96806.88;4214545;28;5089;-64
2023/08/14 12:40:32;;;;;;;;;;;;;;;29.55;42.11;96796.47;4215848;28;5744;-66
2023/08/14 12:42:35;;;;;;;;;;;;;;;29.56;41.43;96791.84;4213738;28;5792;-64
2023/08/14 12:44:38;;;;;;;;;;;;;;;29.57;40.97;96796.19;4217136;28;5881;-64
2023/08/14 12:46:41;;;;;;;;;;;;;;;29.55;41.19;96795.69;4215847;28;5771;-64
2023/08/14 12:48:44;;;;;;;;;;;;;;;29.55;40.72;96791.03;4213155;28;6370;-64
2023/08/14 12:50:47;;;;;;;;;;;;;;;29.57;40.56;96798.91;4213912;28;5097;-64
2023/08/14 12:52:50;;;;;;;;;;;;;;;29.56;40.16;96795.38;4216731;28;5662;-64
2023/08/14 12:54:54;;;;;;;;;;;;;;;29.56;39.85;96786.38;4217576;28;5673;-64
2023/08/14 12:57:00;;;;;;;;;;;;;;;29.54;39.55;96778.53;4217914;28;5649;-64
2023/08/14 12:59:04;;;;;;;;;;;;;;;29.53;38.47;96782.38;4217603;28;5693;-64
2023/08/14 13:01:07;;;;;;;;;;;;;;;29.53;37.50;96779.66;4215733;28;5714;-64
2023/08/14 13:03:10;;;;;;;;;;;;;;;29.55;38.23;96790.22;4217848;28;5689;-64
2023/08/14 13:05:13;;;;;;;;;;;;;;;29.53;37.90;96782.38;4212931;28;5664;-64
2023/08/14 13:07:16;;;;;;;;;;;;;;;29.53;37.96;96776.94;4209125;28;5854;-64
2023/08/14 13:09:19;;;;;;;;;;;;;;;29.54;37.72;96775.81;4205816;28;5237;-63
2023/08/14 13:11:24;;;;;;;;;;;;;;;29.55;37.59;96779.34;4212136;28;5800;-64
2023/08/14 13:13:27;;;;;;;;;;;;;;;29.53;37.35;96774.22;4217781;28;6349;-64
2023/08/14 13:15:30;;;;;;;;;;;;;;;29.53;37.33;96774.22;4215942;28;6371;-64
2023/08/14 13:17:32;;;;;;;;;;;;;;;29.53;37.09;96771.47;4217396;28;7727;-65
2023/08/14 13:19:35;;;;;;;;;;;;;;;29.55;37.17;96769.25;4217635;28;5759;-65
2023/08/14 13:21:38;;;;;;;;;;;;;;;29.56;36.72;96765.44;4214756;28;5908;-64
2023/08/14 13:23:43;;;;;;;;;;;;;;;29.55;36.54;96763.78;4217292;28;5661;-63
2023/08/14 13:25:46;;;;;;;;;;;;;;;29.54;36.22;96756.75;4213606;28;5729;-63
2023/08/14 13:27:50;;;;;;;;;;;;;;;29.54;36.33;96759.47;4217618;28;5854;-63
2023/08/14 13:29:54;;;;;;;;;;;;;;;29.53;36.31;96763.31;4217484;28;5666;-63
2023/08/14 13:31:57;;;;;;;;;;;;;;;29.55;36.20;96752.91;4216111;28;5673;-63
2023/08/14 13:34:00;;;;;;;;;;;;;;;29.56;36.03;96745.53;4216992;28;5862;-63
2023/08/14 13:36:02;;;;;;;;;;;;;;;29.58;36.15;96750.69;4216911;28;5810;-63
2023/08/14 13:38:05;;;;;;;;;;;;;;;29.59;36.07;96744.13;4216643;28;5831;-63
2023/08/14 13:40:09;;;;;;;;;;;;;;;29.59;36.11;96736.75;4216559;28;5743;-63
2023/08/14 13:42:12;;;;;;;;;;;;;;;29.60;36.10;96737.53;4208951;28;5682;-63
2023/08/14 13:44:16;;;;;;;;;;;;;;;29.62;35.73;96729.84;4214378;28;5799;-63
2023/08/14 13:46:19;;;;;;;;;;;;;;;29.63;35.56;96734.19;4209305;28;5085;-63
2023/08/14 13:48:22;;;;;;;;;;;;;;;29.65;35.58;96723.75;4217287;28;5677;-63
2023/08/14 13:50:27;;;;;;;;;;;;;;;29.67;35.33;96724.25;4216383;28;5800;-63
2023/08/14 13:52:33;;;;;;;;;;;;;;;29.69;35.24;96724.75;4216949;28;6362;-64
2023/08/14 13:54:36;;;;;;;;;;;;;;;29.69;35.20;96716.59;4212721;28;5896;-64
2023/08/14 13:56:39;;;;;;;;;;;;;;;29.69;35.25;96709.22;4217275;28;5685;-64
2023/08/14 13:58:42;;;;;;;;;;;;;;;29.69;35.15;96722.03;4217002;28;5669;-65
2023/08/14 14:00:46;;;;;;;;;;;;;;;29.68;34.93;96718.50;4216570;28;5676;-64
2023/08/14 14:02:49;;;;;;;;;;;;;;;29.70;35.17;96720.91;4217137;28;5823;-64
2023/08/14 14:04:52;;;;;;;;;;;;;;;29.71;35.04;96711.63;4216321;28;5834;-64
2023/08/14 14:06:55;;;;;;;;;;;;;;;29.75;34.71;96712.56;4216747;28;5672;-64
2023/08/14 14:08:58;;;;;;;;;;;;;;;29.78;34.28;96720.09;4214359;28;5828;-64
2023/08/14 14:11:01;;;;;;;;;;;;;;;29.77;33.94;96711.13;4216294;28;6362;-63
2023/08/14 14:13:04;;;;;;;;;;;;;;;29.78;34.23;96712.72;4214917;28;6687;-63
2023/08/14 14:15:07;;;;;;;;;;;;;;;29.78;34.38;96712.72;4215956;28;5106;-63
2023/08/14 14:17:12;;;;;;;;;;;;;;;29.79;34.40;96702.66;4212319;28;5684;-63
2023/08/14 14:19:15;;;;;;;;;;;;;;;29.79;34.52;96703.47;4212101;28;5872;-63
2023/08/14 14:21:17;;;;;;;;;;;;;;;29.79;34.41;96703.47;4211641;28;5677;-64
2023/08/14 14:23:20;;;;;;;;;;;;;;;29.79;34.36;96708.91;4214504;28;5799;-64
2023/08/14 14:25:22;;;;;;;;;;;;;;;29.81;34.38;96711.31;4205880;28;5824;-64
2023/08/14 14:27:25;;;;;;;;;;;;;;;29.82;34.28;96702.00;4213223;28;5849;-64
2023/08/14 14:29:29;;;;;;;;;;;;;;;29.83;34.25;96709.06;4212708;28;7679;-64
2023/08/14 14:31:32;;;;;;;;;;;;;;;29.84;34.50;96710.66;4211889;28;5097;-64
2023/08/14 14:33:37;;;;;;;;;;;;;;;29.83;34.58;96703.63;4209605;28;5896;-63
2023/08/14 14:35:38;;;;;;;;;;;;;;;29.85;34.48;96701.38;4206807;28;5078;-64
2023/08/14 14:37:41;;;;;;;;;;;;;;;29.84;34.29;96705.22;4213470;28;5765;-64
2023/08/14 14:39:44;;;;;;;;;;;;;;;29.86;34.32;96697.50;4212214;28;5673;-63
2023/08/14 14:41:47;;;;;;;;;;;;;;;29.86;34.05;96694.78;4212203;28;5685;-64
2023/08/14 14:43:50;;;;;;;;;;;;;;;29.88;34.38;96689.00;4216173;28;5861;-64
2023/08/14 14:45:52;;;;;;;;;;;;;;;29.88;34.42;96698.00;4213959;28;5781;-64
2023/08/14 14:47:56;;;;;;;;;;;;;;;29.87;34.54;96696.41;4209924;28;6498;-64
2023/08/14 14:50:00;;;;;;;;;;;;;;;29.88;34.66;96698.00;4211202;28;5698;-64
2023/08/14 14:52:03;;;;;;;;;;;;;;;29.89;34.44;96691.41;4204845;28;6648;-64
2023/08/14 14:54:07;;;;;;;;;;;;;;;29.89;34.77;96690.63;4209613;28;5882;-64
2023/08/14 14:56:09;;;;;;;;;;;;;;;29.90;34.75;96684.03;4212928;28;5683;-64
2023/08/14 14:58:12;;;;;;;;;;;;;;;29.90;34.61;96686.78;4208609;28;5697;-65
2023/08/14 15:00:17;;;;;;;;;;;;;;;29.90;34.80;96690.31;4208739;28;5707;-64
2023/08/14 15:02:20;;;;;;;;;;;;;;;29.89;34.82;96685.97;4210800;28;5855;-65
2023/08/14 15:04:32;;;;;;;;;;;;;;;29.91;34.75;96680.22;4207374;28;5770;-63
2023/08/14 15:06:36;;;;;;;;;;;;;;;29.94;34.75;96682.31;4211855;28;5839;-65
2023/08/14 15:08:40;;;;;;;;;;;;;;;29.93;34.91;96688.88;4213203;28;5677;-64
2023/08/14 15:10:43;;;;;;;;;;;;;;;29.95;34.96;96690.16;4206208;28;5752;-64
2023/08/14 15:12:46;;;;;;;;;;;;;;;29.98;34.81;96689.50;4206690;28;5670;-65
2023/08/14 15:14:48;;;;;;;;;;;;;;;29.99;34.79;96688.38;4209462;28;5686;-65
2023/08/14 15:16:52;;;;;;;;;;;;;;;30.02;35.06;96686.97;4212553;28;5835;-70
2023/08/14 15:18:56;;;;;;;;;;;;;;;30.02;34.87;96689.69;4211900;28;6589;-63
2023/08/14 15:20:59;;;;;;;;;;;;;;;30.02;34.93;96689.69;4209283;28;5669;-67
2023/08/14 15:23:03;;;;;;;;;;;;;;;30.02;35.07;96689.69;4205060;28;5707;-66
2023/08/14 15:25:07;;;;;;;;;;;;;;;30.02;35.00;96682.31;4208188;28;5767;-68
2023/08/14 15:27:10;;;;;;;;;;;;;;;30.02;35.37;96687.75;4207008;28;5690;-73
2023/08/14 15:29:13;;;;;;;;;;;;;;;30.03;35.47;96692.09;4216011;28;5684;-69
2023/08/14 15:31:17;;;;;;;;;;;;;;;30.05;35.40;96683.59;4209155;28;5693;-72
2023/08/14 15:33:20;;;;;;;;;;;;;;;30.06;35.19;96686.00;4205927;28;7723;-71
2023/08/14 15:35:22;;;;;;;;;;;;;;;30.07;35.48;96690.34;4210498;28;5851;-74
2023/08/14 15:37:25;;;;;;;;;;;;;;;30.08;35.37;96688.41;4207758;28;5689;-71
2023/08/14 15:39:30;;;;;;;;;;;;;;;30.09;35.25;96687.28;4216834;28;5789;-70
2023/08/14 15:41:33;;;;;;;;;;;;;;;30.08;35.29;96691.94;4216586;28;5660;-70
2023/08/14 15:43:36;;;;;;;;;;;;;;;30.09;35.48;96685.38;4215784;28;5751;-69
2023/08/14 15:45:40;;;;;;;;;;;;;;;30.11;35.48;96693.22;4203992;28;5702;-69
2023/08/14 15:47:43;;;;;;;;;;;;;;;30.10;35.40;96695.16;4205260;28;5754;-70
2023/08/14 15:49:46;;;;;;;;;;;;;;;30.12;35.84;96701.06;4215018;28;5752;-72
2023/08/14 15:51:49;;;;;;;;;;;;;;;30.15;36.07;96694.19;4214621;28;5657;-70
2023/08/14 15:53:51;;;;;;;;;;;;;;;30.19;36.27;96694.34;4216965;28;5805;-70
2023/08/14 15:55:56;;;;;;;;;;;;;;;30.21;36.33;96683.91;4217513;28;5831;-69
2023/08/14 15:57:59;;;;;;;;;;;;;;;30.22;36.58;96685.50;4217604;28;5757;-68
2023/08/14 16:00:06;;;;;;;;;;;;;;;30.23;36.64;96689.84;4217616;28;5823;-71
2023/08/14 16:02:09;;;;;;;;;;;;;;;30.23;36.37;96689.84;4217337;28;5756;-70
2023/08/14 16:04:12;;;;;;;;;;;;;;;30.22;36.46;96694.50;4208675;28;5789;-69
2023/08/14 16:06:15;;;;;;;;;;;;;;;30.23;36.64;96693.38;4216819;28;5665;-69
2023/08/14 16:08:18;;;;;;;;;;;;;;;30.23;36.24;96695.28;4208908;28;6515;-69
2023/08/14 16:10:20;;;;;;;;;;;;;;;30.23;36.43;96690.63;4208834;28;5703;-71
2023/08/14 16:12:24;;;;;;;;;;;;;;;30.22;36.42;96690.97;4216305;28;6475;-71
2023/08/14 16:14:26;;;;;;;;;;;;;;;30.23;36.31;96689.84;4209567;28;5112;-71
2023/08/14 16:16:29;;;;;;;;;;;;;;;30.22;36.51;96699.94;4213581;28;5896;-71
2023/08/14 16:18:33;;;;;;;;;;;;;;;30.21;36.39;96683.91;4216739;28;5666;-69
2023/08/14 16:20:36;;;;;;;;;;;;;;;30.22;36.38;96688.25;4216489;28;5686;-69
2023/08/14 16:22:39;;;;;;;;;;;;;;;30.22;36.25;96690.97;4216867;28;5763;-73
2023/08/14 16:24:42;;;;;;;;;;;;;;;30.24;36.31;96683.25;4217707;28;5089;-71
2023/08/14 16:26:44;;;;;;;;;;;;;;;30.25;36.29;96693.06;4217401;28;5916;-66
2023/08/14 16:28:48;;;;;;;;;;;;;;;30.26;36.02;96689.22;4217138;28;5884;-66
2023/08/14 16:30:50;;;;;;;;;;;;;;;30.26;35.89;96689.22;4217192;28;5670;-67
2023/08/14 16:32:53;;;;;;;;;;;;;;;30.27;36.07;96686.16;4216919;28;5097;-66
2023/08/14 16:34:58;;;;;;;;;;;;;;;30.27;36.03;96691.63;4217066;28;5724;-67
2023/08/14 16:37:01;;;;;;;;;;;;;;;30.28;36.22;96695.94;4216811;28;5769;-67
2023/08/14 16:39:05;;;;;;;;;;;;;;;30.26;36.28;96689.22;4216912;28;5792;-68
2023/08/14 16:41:08;;;;;;;;;;;;;;;30.29;36.29;96694.03;4216895;28;5664;-67
2023/08/14 16:43:11;;;;;;;;;;;;;;;30.28;36.27;96695.16;4216510;28;5764;-68
2023/08/14 16:45:16;;;;;;;;;;;;;;;30.28;36.43;96697.88;4216828;28;5699;-65
2023/08/14 16:47:18;;;;;;;;;;;;;;;30.27;36.38;96697.06;4209995;28;5769;-68
2023/08/14 16:49:21;;;;;;;;;;;;;;;30.26;36.49;96700.94;4216240;28;5761;-67
2023/08/14 16:51:23;;;;;;;;;;;;;;;30.27;36.54;96713.44;4216417;28;5677;-68
2023/08/14 16:53:27;;;;;;;;;;;;;;;30.28;36.98;96703.31;4216586;28;6437;-67
2023/08/14 16:55:30;;;;;;;;;;;;;;;30.26;37.04;96697.41;4216773;28;5876;-65
2023/08/14 16:57:33;;;;;;;;;;;;;;;30.27;37.11;96696.28;4208823;28;5829;-68
2023/08/14 16:59:35;;;;;;;;;;;;;;;30.27;37.04;96697.06;4201150;28;5760;-67
2023/08/14 17:01:39;;;;;;;;;;;;;;;30.27;37.41;96696.28;4208478;28;5835;-69
2023/08/14 17:03:42;;;;;;;;;;;;;;;30.27;37.50;96694.34;4216043;28;5771;-67
2023/08/14 17:05:45;;;;;;;;;;;;;;;30.27;37.58;96696.28;4216046;28;5677;-67
2023/08/14 17:07:48;;;;;;;;;;;;;;;30.25;37.38;96688.41;4215923;28;5729;-65
2023/08/14 17:09:51;;;;;;;;;;;;;;;30.25;37.75;96693.88;4216365;28;5786;-66